Time;durP1;ratioP1;P1;durP2;ratioP2;P2;SDS_P1;SDS_P2;PMS_P1;PMS_P2;Temp;Humidity;BMP_temperature;BMP_pressure;BME280_temperature;BME280_humidity;BME280_pressure;Samples;Min_cycle;Max_cycle;Signal;HPM_P1;HPM_P2
2023/12/02 00:02:25;;;;;;;2.50;2.30;;;;;;;;;;4981596;28;58406;-74
2023/12/02 00:04:50;;;;;;;2.55;2.35;;;;;;;;;;4982973;28;58786;-76
2023/12/02 00:07:15;;;;;;;2.80;2.60;;;;;;;;;;4982224;28;59604;-74
2023/12/02 00:09:40;;;;;;;2.90;2.60;;;;;;;;;;4981027;28;58504;-73
2023/12/02 00:12:06;;;;;;;2.40;2.20;;;;;;;;;;4980230;28;58520;-74
2023/12/02 00:14:31;;;;;;;3.20;2.13;;;;;;;;;;4980794;28;58540;-72
2023/12/02 00:16:56;;;;;;;2.60;2.40;;;;;;;;;;4983295;28;57933;-71
2023/12/02 00:19:21;;;;;;;3.63;2.28;;;;;;;;;;4980446;28;58343;-72
2023/12/02 00:21:47;;;;;;;2.63;2.43;;;;;;;;;;4980579;28;58609;-72
2023/12/02 00:24:12;;;;;;;4.23;2.47;;;;;;;;;;4981318;28;58941;-74
2023/12/02 00:26:37;;;;;;;2.67;2.43;;;;;;;;;;4980697;28;58935;-73
2023/12/02 00:29:03;;;;;;;2.75;2.55;;;;;;;;;;4981994;28;59220;-73
2023/12/02 00:31:28;;;;;;;2.57;2.20;;;;;;;;;;4980074;28;59183;-74
2023/12/02 00:33:53;;;;;;;3.20;2.20;;;;;;;;;;4982073;28;58837;-72
2023/12/02 00:36:18;;;;;;;2.57;2.37;;;;;;;;;;4982140;28;60119;-73
2023/12/02 00:38:43;;;;;;;2.90;2.70;;;;;;;;;;4979619;28;59006;-71
2023/12/02 00:41:10;;;;;;;2.20;2.10;;;;;;;;;;4961814;28;58174;-74
2023/12/02 00:43:35;;;;;;;2.38;2.28;;;;;;;;;;4977562;28;58848;-71
2023/12/02 00:46:01;;;;;;;2.40;2.20;;;;;;;;;;4981004;28;59433;-71
2023/12/02 00:48:26;;;;;;;2.85;2.63;;;;;;;;;;4981146;28;58435;-72
2023/12/02 00:50:51;;;;;;;2.17;2.07;;;;;;;;;;4979253;28;58768;-71
2023/12/02 00:53:16;;;;;;;2.70;2.50;;;;;;;;;;4978899;28;58370;-70
2023/12/02 00:55:42;;;;;;;1.83;1.73;;;;;;;;;;4983388;28;59317;-71
2023/12/02 00:58:07;;;;;;;1.90;1.80;;;;;;;;;;4980849;28;58426;-73
2023/12/02 01:00:32;;;;;;;3.23;2.20;;;;;;;;;;4980876;28;58595;-73
2023/12/02 01:02:57;;;;;;;2.23;2.13;;;;;;;;;;4983360;28;59507;-72
2023/12/02 01:05:22;;;;;;;2.67;2.47;;;;;;;;;;4982309;28;60506;-71
2023/12/02 01:07:47;;;;;;;2.60;2.40;;;;;;;;;;4980485;28;58396;-73
2023/12/02 01:10:13;;;;;;;2.37;2.17;;;;;;;;;;4974664;28;58896;-71
2023/12/02 01:12:39;;;;;;;2.63;2.43;;;;;;;;;;4975683;28;58569;-72
2023/12/02 01:15:04;;;;;;;2.40;2.20;;;;;;;;;;4978932;28;58599;-72
2023/12/02 01:17:29;;;;;;;2.20;2.10;;;;;;;;;;4979154;28;60461;-72
2023/12/02 01:19:54;;;;;;;2.42;2.30;;;;;;;;;;4980139;28;58526;-72
2023/12/02 01:22:19;;;;;;;2.43;2.23;;;;;;;;;;4978790;28;59510;-72
2023/12/02 01:24:44;;;;;;;2.50;2.25;;;;;;;;;;4979361;28;58436;-72
2023/12/02 01:27:10;;;;;;;2.30;2.10;;;;;;;;;;4980047;28;58422;-72
2023/12/02 01:29:35;;;;;;;2.33;2.13;;;;;;;;;;4981552;28;60093;-72
2023/12/02 01:32:00;;;;;;;2.20;2.10;;;;;;;;;;4980028;28;58409;-71
2023/12/02 01:34:26;;;;;;;2.20;2.00;;;;;;;;;;4980865;28;59439;-72
2023/12/02 01:36:51;;;;;;;2.60;2.40;;;;;;;;;;4983648;28;58528;-72
2023/12/02 01:39:16;;;;;;;2.40;2.03;;;;;;;;;;5015018;28;58530;-72
2023/12/02 01:41:41;;;;;;;2.37;2.17;;;;;;;;;;4983055;28;59743;-71
2023/12/02 01:44:06;;;;;;;2.28;1.92;;;;;;;;;;4984501;28;58538;-72
2023/12/02 01:46:32;;;;;;;2.37;2.17;;;;;;;;;;4984685;28;58401;-72
2023/12/02 01:49:00;;;;;;;2.73;2.53;;;;;;;;;;4985075;28;59309;-72
2023/12/02 01:51:26;;;;;;;2.47;2.28;;;;;;;;;;4984857;28;59024;-72
2023/12/02 01:53:51;;;;;;;2.60;2.30;;;;;;;;;;4982425;28;59665;-69
2023/12/02 01:56:17;;;;;;;3.07;2.77;;;;;;;;;;4984009;28;58311;-69
2023/12/02 01:58:42;;;;;;;2.25;2.05;;;;;;;;;;4985578;28;58426;-69
2023/12/02 02:01:07;;;;;;;2.55;2.35;;;;;;;;;;4984299;28;59425;-69
2023/12/02 02:03:33;;;;;;;2.92;2.40;;;;;;;;;;4983601;28;58710;-69
2023/12/02 02:05:58;;;;;;;2.80;2.60;;;;;;;;;;4986159;28;58699;-69
2023/12/02 02:08:23;;;;;;;2.38;2.05;;;;;;;;;;4982915;28;60095;-69
2023/12/02 02:10:58;;;;;;;2.10;1.97;;;;;;;;;;4984189;28;58995;-69
2023/12/02 02:13:23;;;;;;;2.53;2.33;;;;;;;;;;4984299;28;58546;-70
2023/12/02 02:15:48;;;;;;;2.20;2.00;;;;;;;;;;4983588;28;59008;-69
2023/12/02 02:18:13;;;;;;;2.38;2.28;;;;;;;;;;4984985;28;58400;-69
2023/12/02 02:20:39;;;;;;;2.42;2.22;;;;;;;;;;4983707;28;58726;-69
2023/12/02 02:23:04;;;;;;;2.33;2.13;;;;;;;;;;4983596;28;57872;-69
2023/12/02 02:25:29;;;;;;;2.28;2.17;;;;;;;;;;4983810;28;58410;-69
2023/12/02 02:27:54;;;;;;;2.23;1.87;;;;;;;;;;4984195;28;59432;-70
2023/12/02 02:30:20;;;;;;;2.55;2.35;;;;;;;;;;4982577;28;59044;-70
2023/12/02 02:32:45;;;;;;;2.53;2.33;;;;;;;;;;4983577;28;58431;-69
2023/12/02 02:35:10;;;;;;;2.50;2.30;;;;;;;;;;4985477;28;59478;-70
2023/12/02 02:37:35;;;;;;;2.33;2.13;;;;;;;;;;4984465;28;58394;-70
2023/12/02 02:40:00;;;;;;;2.70;2.50;;;;;;;;;;4984501;28;58300;-70
2023/12/02 02:42:25;;;;;;;2.92;2.65;;;;;;;;;;4981463;28;58366;-69
2023/12/02 02:44:50;;;;;;;2.53;2.33;;;;;;;;;;4984405;28;58682;-71
2023/12/02 02:47:16;;;;;;;2.30;2.10;;;;;;;;;;4983991;28;59217;-70
2023/12/02 02:49:41;;;;;;;2.20;2.00;;;;;;;;;;4984185;28;63184;-70
2023/12/02 02:52:06;;;;;;;2.60;2.40;;;;;;;;;;4984404;28;58403;-70
2023/12/02 02:54:31;;;;;;;3.00;2.80;;;;;;;;;;4982740;28;60341;-70
2023/12/02 02:56:56;;;;;;;2.47;2.27;;;;;;;;;;4984571;28;57891;-70
2023/12/02 02:59:21;;;;;;;2.33;2.13;;;;;;;;;;4991767;28;58997;-70
2023/12/02 03:01:47;;;;;;;2.73;2.53;;;;;;;;;;4982704;28;58529;-69
2023/12/02 03:04:13;;;;;;;2.38;2.17;;;;;;;;;;4982651;28;58438;-73
2023/12/02 03:06:38;;;;;;;2.38;2.17;;;;;;;;;;4983732;28;59865;-73
2023/12/02 03:09:05;;;;;;;2.25;2.05;;;;;;;;;;4984746;28;58680;-72
2023/12/02 03:11:30;;;;;;;2.25;2.05;;;;;;;;;;4982811;28;58466;-73
2023/12/02 03:13:55;;;;;;;2.70;2.50;;;;;;;;;;4985074;28;59661;-73
2023/12/02 03:16:20;;;;;;;2.00;1.83;;;;;;;;;;4984118;28;59035;-72
2023/12/02 03:18:45;;;;;;;2.40;2.20;;;;;;;;;;4981517;28;59484;-73
2023/12/02 03:21:11;;;;;;;2.40;2.20;;;;;;;;;;4963306;28;59132;-73
2023/12/02 03:23:36;;;;;;;2.20;2.00;;;;;;;;;;4963977;28;58291;-73
2023/12/02 03:26:01;;;;;;;2.28;2.08;;;;;;;;;;4965245;28;59593;-73
2023/12/02 03:28:27;;;;;;;2.50;2.30;;;;;;;;;;4964014;28;58383;-73
2023/12/02 03:30:52;;;;;;;3.10;2.47;;;;;;;;;;4977217;28;58423;-73
2023/12/02 03:33:18;;;;;;;2.13;2.00;;;;;;;;;;4983307;28;59277;-73
2023/12/02 03:35:43;;;;;;;2.47;2.28;;;;;;;;;;4982640;28;58809;-72
2023/12/02 03:38:08;;;;;;;2.95;2.60;;;;;;;;;;4986365;28;58567;-73
2023/12/02 03:40:34;;;;;;;2.88;2.60;;;;;;;;;;4981021;28;58931;-73
2023/12/02 03:42:59;;;;;;;2.80;2.60;;;;;;;;;;4984302;28;57860;-72
2023/12/02 03:45:24;;;;;;;2.40;2.20;;;;;;;;;;4981683;28;59605;-72
2023/12/02 03:47:49;;;;;;;2.20;2.00;;;;;;;;;;4982050;28;58832;-72
2023/12/02 03:50:14;;;;;;;2.40;2.20;;;;;;;;;;4984903;28;58404;-73
2023/12/02 03:52:39;;;;;;;2.40;2.20;;;;;;;;;;4983018;28;59546;-73
2023/12/02 03:55:05;;;;;;;2.40;2.20;;;;;;;;;;4983732;28;58742;-73
2023/12/02 03:57:30;;;;;;;2.58;2.38;;;;;;;;;;4983129;28;58349;-73
2023/12/02 03:59:56;;;;;;;2.53;2.33;;;;;;;;;;4982637;28;59443;-73
2023/12/02 04:02:22;;;;;;;2.90;2.63;;;;;;;;;;4983969;28;59086;-72
2023/12/02 04:04:47;;;;;;;2.10;1.90;;;;;;;;;;4985262;28;59220;-69
2023/12/02 04:07:13;;;;;;;1.90;1.80;;;;;;;;;;4983077;28;58878;-69
2023/12/02 04:09:38;;;;;;;2.00;1.90;;;;;;;;;;4983149;28;58630;-70
2023/12/02 04:12:03;;;;;;;2.47;2.27;;;;;;;;;;4983292;28;58515;-70
2023/12/02 04:14:29;;;;;;;2.40;2.20;;;;;;;;;;4981510;28;59844;-73
2023/12/02 04:16:54;;;;;;;2.35;2.15;;;;;;;;;;4983277;28;58420;-73
2023/12/02 04:19:19;;;;;;;2.10;1.90;;;;;;;;;;4983348;28;59496;-73
2023/12/02 04:21:44;;;;;;;2.33;2.13;;;;;;;;;;4980725;28;58440;-73
2023/12/02 04:24:10;;;;;;;2.20;2.00;;;;;;;;;;4981982;28;59612;-72
2023/12/02 04:26:36;;;;;;;2.30;2.10;;;;;;;;;;4982227;28;59031;-72
2023/12/02 04:29:01;;;;;;;2.53;2.33;;;;;;;;;;4981750;28;58591;-73
2023/12/02 04:31:26;;;;;;;2.25;2.03;;;;;;;;;;4982541;28;58463;-72
2023/12/02 04:33:51;;;;;;;2.30;2.10;;;;;;;;;;4982078;28;60062;-73
2023/12/02 04:36:17;;;;;;;2.20;2.00;;;;;;;;;;4982935;28;58414;-73
2023/12/02 04:38:42;;;;;;;2.53;2.33;;;;;;;;;;4981880;28;58602;-72
2023/12/02 04:41:07;;;;;;;2.17;1.98;;;;;;;;;;4982506;28;59009;-73
2023/12/02 04:43:33;;;;;;;2.30;2.00;;;;;;;;;;4982818;28;58351;-73
2023/12/02 04:45:58;;;;;;;2.30;2.10;;;;;;;;;;4980602;28;59134;-73
2023/12/02 04:48:23;;;;;;;1.97;1.87;;;;;;;;;;4981529;28;58422;-73
2023/12/02 04:50:48;;;;;;;2.57;2.37;;;;;;;;;;4981185;28;59404;-73
2023/12/02 04:53:13;;;;;;;2.00;1.90;;;;;;;;;;4981923;28;59032;-73
2023/12/02 04:55:38;;;;;;;1.93;1.80;;;;;;;;;;4984628;28;58408;-73
2023/12/02 04:58:04;;;;;;;2.30;2.10;;;;;;;;;;4984425;28;59203;-72
2023/12/02 05:00:29;;;;;;;2.20;2.00;;;;;;;;;;4982757;28;58922;-73
2023/12/02 05:02:54;;;;;;;1.93;1.83;;;;;;;;;;4986002;28;58014;-73
2023/12/02 05:05:20;;;;;;;2.15;1.95;;;;;;;;;;4984546;28;59836;-73
2023/12/02 05:07:45;;;;;;;1.90;1.80;;;;;;;;;;4982008;28;58436;-73
2023/12/02 05:10:10;;;;;;;2.83;2.63;;;;;;;;;;4981168;28;59481;-71
2023/12/02 05:12:36;;;;;;;2.50;2.30;;;;;;;;;;4981115;28;58404;-73
2023/12/02 05:15:02;;;;;;;2.42;2.22;;;;;;;;;;4982838;28;60009;-73
2023/12/02 05:17:27;;;;;;;1.95;1.85;;;;;;;;;;4981207;28;59826;-72
2023/12/02 05:19:52;;;;;;;2.95;2.75;;;;;;;;;;4981309;28;59006;-73
2023/12/02 05:22:17;;;;;;;2.53;2.33;;;;;;;;;;4981923;28;58397;-73
2023/12/02 05:24:43;;;;;;;2.33;2.00;;;;;;;;;;4980813;28;59343;-70
2023/12/02 05:27:08;;;;;;;2.63;2.42;;;;;;;;;;4982390;28;58055;-70
2023/12/02 05:29:33;;;;;;;2.30;2.10;;;;;;;;;;4983226;28;58565;-70
2023/12/02 05:31:58;;;;;;;2.83;2.40;;;;;;;;;;4981686;28;58979;-70
2023/12/02 05:34:24;;;;;;;2.60;2.40;;;;;;;;;;4982231;28;58513;-70
2023/12/02 05:36:49;;;;;;;2.70;2.45;;;;;;;;;;4981430;28;59672;-70
2023/12/02 05:39:14;;;;;;;2.30;2.10;;;;;;;;;;4981275;28;58867;-70
2023/12/02 05:41:40;;;;;;;1.97;1.80;;;;;;;;;;4981621;28;58384;-70
2023/12/02 05:44:05;;;;;;;2.10;1.92;;;;;;;;;;4982932;28;58702;-70
2023/12/02 05:46:31;;;;;;;2.50;2.30;;;;;;;;;;4982151;28;58757;-70
2023/12/02 05:48:56;;;;;;;2.47;2.28;;;;;;;;;;4980292;28;59122;-70
2023/12/02 05:51:22;;;;;;;2.10;1.95;;;;;;;;;;4980353;28;59056;-69
2023/12/02 05:53:47;;;;;;;2.30;2.10;;;;;;;;;;4980355;28;58853;-69
2023/12/02 05:56:13;;;;;;;1.90;1.80;;;;;;;;;;4983321;28;59419;-69
2023/12/02 05:58:38;;;;;;;2.30;2.05;;;;;;;;;;4981049;28;59025;-69
2023/12/02 06:01:03;;;;;;;2.33;2.13;;;;;;;;;;4979919;28;58319;-69
2023/12/02 06:03:28;;;;;;;1.70;1.60;;;;;;;;;;4979377;28;59545;-69
2023/12/02 06:05:53;;;;;;;2.40;2.20;;;;;;;;;;4979833;28;58764;-69
2023/12/02 06:08:18;;;;;;;2.25;2.05;;;;;;;;;;4982128;28;58542;-69
2023/12/02 06:10:44;;;;;;;1.85;1.75;;;;;;;;;;4980369;28;59672;-69
2023/12/02 06:13:09;;;;;;;2.00;1.90;;;;;;;;;;4981891;28;58394;-69
2023/12/02 06:15:34;;;;;;;2.30;2.10;;;;;;;;;;4981075;28;59544;-69
2023/12/02 06:17:59;;;;;;;1.80;1.70;;;;;;;;;;4978339;28;58409;-69
2023/12/02 06:20:24;;;;;;;1.97;1.87;;;;;;;;;;4979165;28;57939;-70
2023/12/02 06:22:50;;;;;;;2.53;2.10;;;;;;;;;;4984376;28;58474;-69
2023/12/02 06:25:15;;;;;;;2.58;2.38;;;;;;;;;;4983968;28;58745;-72
2023/12/02 06:27:41;;;;;;;2.30;2.10;;;;;;;;;;4982638;28;58139;-71
2023/12/02 06:30:06;;;;;;;1.60;1.50;;;;;;;;;;4984437;28;60256;-72
2023/12/02 06:32:31;;;;;;;2.78;2.58;;;;;;;;;;4984813;28;58432;-72
2023/12/02 06:34:56;;;;;;;1.98;1.88;;;;;;;;;;4983481;28;58372;-72
2023/12/02 06:37:21;;;;;;;3.10;2.65;;;;;;;;;;4983439;28;59111;-71
2023/12/02 06:39:47;;;;;;;2.40;2.20;;;;;;;;;;4985138;28;58630;-72
2023/12/02 06:42:12;;;;;;;2.20;2.03;;;;;;;;;;4985650;28;59504;-73
2023/12/02 06:44:37;;;;;;;1.73;1.63;;;;;;;;;;4983891;28;57848;-73
2023/12/02 06:47:02;;;;;;;2.08;1.98;;;;;;;;;;4985078;28;58276;-73
2023/12/02 06:49:27;;;;;;;32.67;2.38;;;;;;;;;;4983069;28;58474;-72
2023/12/02 06:51:52;;;;;;;1.80;1.70;;;;;;;;;;4983735;28;58474;-72
2023/12/02 06:54:18;;;;;;;2.60;2.40;;;;;;;;;;4984074;28;59333;-73
2023/12/02 06:56:43;;;;;;;2.65;2.45;;;;;;;;;;4983422;28;59142;-72
2023/12/02 06:59:08;;;;;;;2.27;2.07;;;;;;;;;;4984480;28;58406;-73
2023/12/02 07:01:33;;;;;;;2.43;2.03;;;;;;;;;;4963409;28;58316;-72
2023/12/02 07:03:59;;;;;;;2.27;2.13;;;;;;;;;;4976189;28;59275;-73
2023/12/02 07:06:25;;;;;;;2.38;1.98;;;;;;;;;;4982887;28;57918;-72
2023/12/02 07:08:51;;;;;;;1.67;1.58;;;;;;;;;;4984714;28;59356;-72
2023/12/02 07:11:16;;;;;;;3.33;2.17;;;;;;;;;;4984975;28;58942;-72
2023/12/02 07:13:42;;;;;;;1.98;1.75;;;;;;;;;;4983881;28;63660;-73
2023/12/02 07:16:07;;;;;;;1.77;1.67;;;;;;;;;;4983239;28;59876;-72
2023/12/02 07:18:32;;;;;;;2.17;2.03;;;;;;;;;;4981452;28;58433;-72
2023/12/02 07:20:58;;;;;;;3.23;2.20;;;;;;;;;;4982410;28;59563;-73
2023/12/02 07:23:25;;;;;;;4.40;2.67;;;;;;;;;;4983182;28;58986;-73
2023/12/02 07:25:50;;;;;;;4.03;3.72;;;;;;;;;;4981004;28;58461;-73
2023/12/02 07:28:16;;;;;;;5.73;3.93;;;;;;;;;;4982927;28;60046;-72
2023/12/02 07:30:41;;;;;;;5.65;3.85;;;;;;;;;;4982579;28;58456;-73
2023/12/02 07:33:06;;;;;;;4.00;3.47;;;;;;;;;;4981927;28;58673;-71
2023/12/02 07:35:31;;;;;;;4.70;4.27;;;;;;;;;;4982114;28;59812;-69
2023/12/02 07:37:56;;;;;;;3.60;3.30;;;;;;;;;;4980561;28;58412;-69
2023/12/02 07:40:21;;;;;;;3.80;3.40;;;;;;;;;;4981009;28;58399;-69
2023/12/02 07:42:47;;;;;;;3.50;3.17;;;;;;;;;;4981689;28;58764;-69
2023/12/02 07:45:12;;;;;;;2.83;2.63;;;;;;;;;;4981442;28;58601;-70
2023/12/02 07:47:37;;;;;;;4.10;3.70;;;;;;;;;;4981437;28;58762;-69
2023/12/02 07:50:02;;;;;;;3.22;2.92;;;;;;;;;;4981671;28;58706;-69
2023/12/02 07:52:27;;;;;;;3.13;2.63;;;;;;;;;;4982611;28;58319;-70
2023/12/02 07:54:52;;;;;;;3.20;2.92;;;;;;;;;;4982210;28;59350;-69
2023/12/02 07:57:17;;;;;;;2.77;2.37;;;;;;;;;;4983574;28;58399;-70
2023/12/02 07:59:42;;;;;;;2.70;2.47;;;;;;;;;;4982601;28;58453;-70
2023/12/02 08:02:08;;;;;;;3.20;2.88;;;;;;;;;;4983289;28;58376;-69
2023/12/02 08:04:33;;;;;;;3.58;3.28;;;;;;;;;;4983335;28;58350;-70
2023/12/02 08:06:58;;;;;;;3.25;2.97;;;;;;;;;;4982691;28;60409;-70
2023/12/02 08:09:23;;;;;;;2.38;2.17;;;;;;;;;;4981823;28;58583;-69
2023/12/02 08:11:48;;;;;;;4.20;2.63;;;;;;;;;;4981147;28;58810;-69
2023/12/02 08:14:14;;;;;;;6.07;2.22;;;;;;;;;;4982956;28;59433;-70
2023/12/02 08:16:39;;;;;;;2.60;2.40;;;;;;;;;;4981378;28;58986;-70
2023/12/02 08:19:04;;;;;;;3.65;2.50;;;;;;;;;;4981016;28;58536;-69
2023/12/02 08:21:29;;;;;;;2.83;2.63;;;;;;;;;;4980825;28;58412;-70
2023/12/02 08:23:54;;;;;;;3.07;2.80;;;;;;;;;;4981680;28;58353;-69
2023/12/02 08:26:20;;;;;;;2.53;2.28;;;;;;;;;;4981169;28;59214;-69
2023/12/02 08:28:46;;;;;;;2.47;2.10;;;;;;;;;;4980753;28;58390;-69
2023/12/02 08:31:12;;;;;;;2.72;2.53;;;;;;;;;;4981730;28;58410;-69
2023/12/02 08:33:37;;;;;;;2.70;2.50;;;;;;;;;;4982238;28;58791;-69
2023/12/02 08:36:03;;;;;;;2.43;2.23;;;;;;;;;;4982245;28;59023;-70
2023/12/02 08:38:28;;;;;;;3.05;2.80;;;;;;;;;;4982502;28;58395;-70
2023/12/02 08:40:53;;;;;;;2.95;2.75;;;;;;;;;;4980867;28;58646;-70
2023/12/02 08:43:18;;;;;;;4.40;3.00;;;;;;;;;;4982085;28;58738;-70
2023/12/02 08:45:43;;;;;;;4.67;3.10;;;;;;;;;;4983169;28;59520;-73
2023/12/02 08:48:08;;;;;;;3.65;2.92;;;;;;;;;;4981855;28;59992;-72
2023/12/02 08:50:34;;;;;;;3.80;2.72;;;;;;;;;;4980806;28;58399;-72
2023/12/02 08:52:59;;;;;;;3.03;2.73;;;;;;;;;;4979990;28;59454;-72
2023/12/02 08:55:24;;;;;;;2.75;2.30;;;;;;;;;;4980369;28;59664;-70
2023/12/02 08:57:49;;;;;;;2.87;2.30;;;;;;;;;;4982201;28;58370;-70
2023/12/02 09:00:15;;;;;;;3.17;2.88;;;;;;;;;;4981986;28;59527;-70
2023/12/02 09:02:40;;;;;;;3.00;2.73;;;;;;;;;;4980337;28;58468;-70
2023/12/02 09:05:05;;;;;;;2.47;2.10;;;;;;;;;;4981622;28;59029;-70
2023/12/02 09:07:30;;;;;;;2.53;1.98;;;;;;;;;;4981368;28;58557;-69
2023/12/02 09:09:57;;;;;;;2.33;2.20;;;;;;;;;;4982823;28;58584;-70
2023/12/02 09:12:22;;;;;;;3.45;2.47;;;;;;;;;;4978535;28;58557;-70
2023/12/02 09:15:00;;;;;;;2.70;2.50;;;;;;;;;;4981096;28;58821;-69
2023/12/02 09:17:48;;;;;;;3.40;3.10;;;;;;;;;;4982273;28;58106;-69
2023/12/02 09:20:33;;;;;;;3.63;2.90;;;;;;;;;;4982741;28;59578;-70
2023/12/02 09:23:00;;;;;;;2.60;2.35;;;;;;;;;;4980925;28;58592;-69
2023/12/02 09:25:27;;;;;;;3.22;3.03;;;;;;;;;;4980521;28;59644;-69
2023/12/02 09:28:07;;;;;;;2.95;2.75;;;;;;;;;;4980356;28;59010;-69
2023/12/02 09:30:33;;;;;;;4.20;2.95;;;;;;;;;;4979830;28;58450;-69
2023/12/02 09:32:59;;;;;;;4.53;2.97;;;;;;;;;;4979794;28;59553;-70
2023/12/02 09:35:24;;;;;;;2.90;2.60;;;;;;;;;;4979824;28;59190;-68
2023/12/02 09:37:53;;;;;;;2.47;2.27;;;;;;;;;;4980356;28;58473;-69
2023/12/02 09:40:21;;;;;;;2.42;2.22;;;;;;;;;;4980709;28;58651;-70
2023/12/02 09:42:46;;;;;;;;;;;;;;;;;;4981917;28;58990;-69
2023/12/02 09:45:11;;;;;;;3.08;2.30;;;;;;;;;;4982450;28;58911;-70
2023/12/02 09:47:40;;;;;;;3.67;2.73;;;;;;;;;;4981191;28;58789;-70
2023/12/02 09:50:27;;;;;;;2.30;2.10;;;;;;;;;;4983065;28;57881;-69
2023/12/02 09:53:09;;;;;;;2.72;2.53;;;;;;;;;;4983001;28;62894;-69
2023/12/02 09:55:43;;;;;;;2.38;2.17;;;;;;;;;;4982279;28;58519;-69
2023/12/02 09:58:28;;;;;;;2.67;2.47;;;;;;;;;;4986440;28;58552;-69
2023/12/02 10:01:12;;;;;;;3.22;2.92;;;;;;;;;;4984056;28;58833;-70
2023/12/02 10:03:50;;;;;;;3.90;2.10;;;;;;;;;;4984728;28;59620;-70
2023/12/02 10:06:34;;;;;;;4.30;2.40;;;;;;;;;;4985732;28;58094;-69
2023/12/02 10:09:18;;;;;;;2.10;1.90;;;;;;;;;;4984123;28;58952;-70
2023/12/02 10:11:43;;;;;;;2.97;2.67;;;;;;;;;;4984027;28;58386;-70
2023/12/02 10:14:12;;;;;;;2.42;1.98;;;;;;;;;;4986261;28;58604;-70
2023/12/02 10:16:39;;;;;;;2.15;2.05;;;;;;;;;;4983871;28;58426;-70
2023/12/02 10:19:04;;;;;;;3.42;3.08;;;;;;;;;;4984677;28;57990;-69
2023/12/02 10:21:31;;;;;;;2.20;2.00;;;;;;;;;;4983331;28;59809;-71
2023/12/02 10:24:10;;;;;;;2.40;2.20;;;;;;;;;;4984905;28;59945;-72
2023/12/02 10:26:44;;;;;;;4.47;2.28;;;;;;;;;;4984146;28;58276;-74
2023/12/02 10:29:26;;;;;;;2.78;2.45;;;;;;;;;;4985946;28;58452;-70
2023/12/02 10:32:06;;;;;;;7.60;2.95;;;;;;;;;;4962309;28;58382;-70
2023/12/02 10:34:38;;;;;;;4.18;2.97;;;;;;;;;;4961142;28;59453;-70
2023/12/02 10:37:04;;;;;;;3.20;2.45;;;;;;;;;;4955114;28;58533;-70
2023/12/02 10:39:35;;;;;;;2.65;2.38;;;;;;;;;;4958487;28;58451;-70
2023/12/02 10:42:01;;;;;;;3.80;2.25;;;;;;;;;;4959622;28;58543;-71
2023/12/02 10:44:29;;;;;;;2.75;2.55;;;;;;;;;;4958985;28;58714;-70
2023/12/02 10:46:55;;;;;;;2.42;2.22;;;;;;;;;;4961119;28;58885;-70
2023/12/02 10:49:21;;;;;;;3.42;2.03;;;;;;;;;;4961811;28;58505;-71
2023/12/02 10:51:48;;;;;;;6.38;3.25;;;;;;;;;;4973393;28;60345;-69
2023/12/02 10:54:16;;;;;;;2.45;2.25;;;;;;;;;;4985065;28;59522;-69
2023/12/02 10:56:44;;;;;;;4.03;2.47;;;;;;;;;;4984708;28;58364;-68
2023/12/02 10:59:10;;;;;;;;;;;;;;;;;;4988376;28;58512;-68
2023/12/02 11:01:35;;;;;;;;;;;;;;;;;;4985874;28;58424;-71
2023/12/02 11:04:00;;;;;;;;;;;;;;;;;;4984481;28;58387;-70
2023/12/02 11:06:25;;;;;;;;;;;;;;;;;;4982141;28;57886;-70
2023/12/02 11:08:50;;;;;;;;;;;;;;;;;;4984533;28;58889;-68
2023/12/02 11:11:15;;;;;;;;;;;;;;;;;;4982743;28;58978;-69
2023/12/02 11:13:40;;;;;;;;;;;;;;;;;;4986377;28;58447;-68
2023/12/02 11:16:05;;;;;;;;;;;;;;;;;;4983163;28;58868;-68
2023/12/02 11:18:30;;;;;;;;;;;;;;;;;;4981654;28;58496;-69
2023/12/02 11:20:56;;;;;;;;;;;;;;;;;;4984303;28;58595;-68
2023/12/02 11:23:21;;;;;;;;;;;;;;;;;;4983551;28;58853;-69
2023/12/02 11:25:46;;;;;;;;;;;;;;;;;;4983169;28;58391;-68
2023/12/02 11:28:11;;;;;;;;;;;;;;;;;;4984936;28;59374;-70
2023/12/02 11:30:36;;;;;;;;;;;;;;;;;;4983034;28;58509;-71
2023/12/02 11:33:01;;;;;;;;;;;;;;;;;;4984131;28;57716;-68
2023/12/02 11:35:26;;;;;;;;;;;;;;;;;;4982331;28;58556;-68
2023/12/02 11:37:51;;;;;;;;;;;;;;;;;;4985794;28;57831;-69
2023/12/02 11:40:16;;;;;;;;;;;;;;;;;;4983945;28;59334;-69
2023/12/02 11:42:41;;;;;;;;;;;;;;;;;;4982133;28;58896;-68
2023/12/02 11:45:07;;;;;;;;;;;;;;;;;;4984042;28;58383;-68
2023/12/02 11:47:32;;;;;;;;;;;;;;;;;;4984043;28;59689;-71
2023/12/02 11:49:57;;;;;;;;;;;;;;;;;;4983532;28;58402;-71
2023/12/02 11:52:23;;;;;;;;;;;;;;;;;;4981833;28;58511;-71
2023/12/02 11:54:49;;;;;;;;;;;;;;;;;;4981947;28;60643;-72
2023/12/02 11:57:14;;;;;;;;;;;;;;;;;;4981576;28;57958;-69
2023/12/02 11:59:39;;;;;;;;;;;;;;;;;;4983198;28;59734;-72
2023/12/02 12:02:04;;;;;;;;;;;;;;;;;;4982972;28;58270;-71
2023/12/02 12:04:29;;;;;;;;;;;;;;;;;;4983298;28;58505;-71
2023/12/02 12:06:55;;;;;;;;;;;;;;;;;;4981253;28;59332;-71
2023/12/02 12:09:21;;;;;;;;;;;;;;;;;;4982801;28;58781;-70
2023/12/02 12:11:46;;;;;;;;;;;;;;;;;;4982799;28;58635;-67
2023/12/02 12:14:11;;;;;;;;;;;;;;;;;;4983307;28;58524;-69
2023/12/02 12:16:36;;;;;;;;;;;;;;;;;;4983556;28;58926;-72
2023/12/02 12:19:01;;;;;;;;;;;;;;;;;;4983817;28;58462;-70
2023/12/02 12:21:26;;;;;;;;;;;;;;;;;;4981774;28;58763;-69
2023/12/02 12:23:52;;;;;;;;;;;;;;;;;;4983395;28;58468;-71
2023/12/02 12:26:17;;;;;;;;;;;;;;;;;;4981484;28;60242;-70
2023/12/02 12:28:42;;;;;;;;;;;;;;;;;;4980254;28;58544;-70
2023/12/02 12:31:07;;;;;;;;;;;;;;;;;;4981373;28;59544;-70
2023/12/02 12:33:33;;;;;;;;;;;;;;;;;;4982041;28;58425;-70
2023/12/02 12:35:58;;;;;;;;;;;;;;;;;;4980919;28;59887;-72
2023/12/02 12:38:23;;;;;;;;;;;;;;;;;;4983429;28;58423;-71
2023/12/02 12:40:48;;;;;;;;;;;;;;;;;;4981035;28;58463;-71
2023/12/02 12:43:13;;;;;;;;;;;;;;;;;;4982460;28;58370;-71
2023/12/02 12:45:38;;;;;;;;;;;;;;;;;;4981386;28;59601;-70
2023/12/02 12:48:03;;;;;;;;;;;;;;;;;;4984074;28;58858;-71
2023/12/02 12:50:28;;;;;;;;;;;;;;;;;;4982718;28;58820;-71
2023/12/02 12:52:53;;;;;;;;;;;;;;;;;;4984307;28;58508;-73
2023/12/02 12:55:19;;;;;;;;;;;;;;;;;;4981031;28;58487;-70
2023/12/02 12:57:44;;;;;;;;;;;;;;;;;;4982358;28;58431;-72
2023/12/02 13:00:12;;;;;;;;;;;;;;;;;;4982524;28;59498;-70
2023/12/02 13:02:38;;;;;;;;;;;;;;;;;;4982212;28;58499;-72
2023/12/02 13:05:04;;;;;;;;;;;;;;;;;;4982628;28;59384;-73
2023/12/02 13:07:29;;;;;;;;;;;;;;;;;;4978906;28;58874;-72
2023/12/02 13:09:54;;;;;;;;;;;;;;;;;;4983507;28;58657;-70
2023/12/02 13:12:19;;;;;;;;;;;;;;;;;;4981147;28;59400;-71
2023/12/02 13:14:44;;;;;;;;;;;;;;;;;;4981685;28;59017;-72
2023/12/02 13:17:09;;;;;;;;;;;;;;;;;;4980841;28;58388;-71
2023/12/02 13:19:34;;;;;;;;;;;;;;;;;;4981048;28;59443;-70
2023/12/02 13:22:00;;;;;;;;;;;;;;;;;;4981862;28;58472;-74
2023/12/02 13:24:25;;;;;;;;;;;;;;;;;;4982059;28;59400;-70
2023/12/02 13:26:51;;;;;;;;;;;;;;;;;;4981251;28;58726;-71
2023/12/02 13:29:16;;;;;;;;;;;;;;;;;;4982741;28;58381;-72
2023/12/02 13:31:41;;;;;;;;;;;;;;;;;;4982439;28;58682;-70
2023/12/02 13:34:06;;;;;;;;;;;;;;;;;;4984626;28;59399;-71
2023/12/02 13:36:31;;;;;;;;;;;;;;;;;;4986390;28;58476;-71
2023/12/02 13:38:56;;;;;;;;;;;;;;;;;;4985735;28;58511;-71
2023/12/02 13:41:21;;;;;;;;;;;;;;;;;;4983960;28;58454;-70
2023/12/02 13:43:46;;;;;;;;;;;;;;;;;;4985346;28;59447;-74
2023/12/02 13:46:11;;;;;;;;;;;;;;;;;;4984939;28;58668;-70
2023/12/02 13:48:36;;;;;;;;;;;;;;;;;;4986218;28;58305;-70
2023/12/02 13:51:02;;;;;;;;;;;;;;;;;;4984628;28;59432;-70
2023/12/02 13:53:28;;;;;;;;;;;;;;;;;;4983798;28;58606;-70
2023/12/02 13:55:53;;;;;;;;;;;;;;;;;;4986106;28;58712;-70
2023/12/02 13:58:19;;;;;;;;;;;;;;;;;;4986273;28;59556;-70
2023/12/02 14:00:44;;;;;;;;;;;;;;;;;;4983424;28;59345;-70
2023/12/02 14:03:09;;;;;;;;;;;;;;;;;;4985846;28;58365;-70
2023/12/02 14:05:34;;;;;;;;;;;;;;;;;;4983246;28;58888;-70
2023/12/02 14:07:59;;;;;;;;;;;;;;;;;;4984871;28;58564;-73
2023/12/02 14:10:24;;;;;;;;;;;;;;;;;;4986123;28;59499;-77
2023/12/02 14:12:49;;;;;;;;;;;;;;;;;;4984603;28;58850;-76
2023/12/02 14:15:14;;;;;;;;;;;;;;;;;;4985397;28;58432;-74
2023/12/02 14:17:40;;;;;;;;;;;;;;;;;;4984206;28;59461;-77
2023/12/02 14:20:05;;;;;;;;;;;;;;;;;;4985143;28;58930;-76
2023/12/02 14:22:30;;;;;;;;;;;;;;;;;;4983946;28;58301;-78
2023/12/02 14:24:55;;;;;;;;;;;;;;;;;;4985950;28;59629;-78
2023/12/02 14:27:20;;;;;;;;;;;;;;;;;;4984493;28;58371;-75
2023/12/02 14:29:45;;;;;;;;;;;;;;;;;;4984422;28;59357;-67
2023/12/02 14:32:10;;;;;;;;;;;;;;;;;;4983756;28;58783;-68
2023/12/02 14:34:36;;;;;;;;;;;;;;;;;;4983830;28;58505;-72
2023/12/02 14:37:02;;;;;;;;;;;;;;;;;;4984405;28;59588;-72
2023/12/02 14:39:27;;;;;;;;;;;;;;;;;;4985218;28;58838;-72
2023/12/02 14:41:52;;;;;;;;;;;;;;;;;;4984940;28;58446;-73
2023/12/02 14:44:17;;;;;;;;;;;;;;;;;;4985512;28;58570;-75
2023/12/02 14:46:42;;;;;;;;;;;;;;;;;;4984752;28;58721;-76
2023/12/02 14:49:07;;;;;;;;;;;;;;;;;;4982416;28;59199;-76
2023/12/02 14:51:34;;;;;;;;;;;;;;;;;;4981194;28;58424;-71
2023/12/02 14:53:59;;;;;;;;;;;;;;;;;;4982698;28;58535;-71
2023/12/02 14:56:24;;;;;;;;;;;;;;;;;;4983143;28;59251;-74
2023/12/02 14:58:49;;;;;;;;;;;;;;;;;;4982690;28;59007;-74
2023/12/02 15:01:14;;;;;;;;;;;;;;;;;;4981721;28;58378;-74
2023/12/02 15:03:39;;;;;;;;;;;;;;;;;;4980554;28;59440;-74
2023/12/02 15:06:04;;;;;;;;;;;;;;;;;;4983323;28;58688;-74
2023/12/02 15:08:30;;;;;;;;;;;;;;;;;;4982017;28;58297;-75